Database: COMPET-N - COOP - 3PL - 4PL - CNDOOM

WAD: Doom | Doom 2 | TNT | Plutonia | AV | HR | Scythe | MM | MM2 | Requiem | CE
Category: speed | nmare | max | nm100s | tyson | pacifist | fast | respawn | nomo | misc | built | all
Highscore: ALL | IWAD | PWAD | Country | Continent

Remove: wad | map | category | player | all
MapPlayerTimeDateFilenameCommentsDL
E3M7: Gate To LimboChris Ratcliff2:23.002000-11-04e3m7-223.zip - 307
MAP02: The BridgeChris Ratcliff2:37.002002-03-12mm02-237.zip - 326
E4M9: FearChris Ratcliff2:40.002000-05-28u4m9-240.zip - 317
MAP06: Open SeasonChris Ratcliff3:28.002001-02-09ev06-328.zip - 310
MAP05: Core InfectionChris Ratcliff3:31.002002-01-06hr05-331.zip - 291
E2M7: A Place of SinChris Ratcliff3:34.002001-08-31cl27-334.zip - 507
E4M6: Against Thee WickedlyChris Ratcliff3:38.002001-06-22u4m6-338.zip - 316
MAP17: Processing AreaChris Ratcliff3:38.002000-11-26ev17-338.zip - 283
MAP06: Open SeasonChris Ratcliff3:44.002000-11-26ev06-344.zip - 281
MAP14: AquaductChris Ratcliff4:00.002002-03-14mm14-400.zip - 274
MAP28: HeckChris Ratcliff4:21.002002-04-03ev28-421.zip - 390
E2M7: A Place of SinChris Ratcliff4:39.002001-06-26cl27-439.zip - 337
MAP26: Between Scattered CorpsesChris Ratcliff4:40.002001-11-23mm26-440.zip - 398
MAP13: Nukage ProcessingChris Ratcliff4:42.002001-02-05ev13-442.zip - 284
MAP28: HeckChris Ratcliff4:49.002000-10-15ev28-449.zip - 300
MAP02: Human BBQChris Ratcliff4:51.002000-11-23ev02-451.zip - 297
MAP32: CaribbeanChris Ratcliff5:20.002000-12-29ev32-520.zip - 291
MAP28: HeckChris Ratcliff5:21.002000-10-06ev28-521.zip - 288
MAP10: The MansionChris Ratcliff5:24.002002-02-26mm10-524.zip - 274
MAP26: BallistyxChris Ratcliff5:40.002000-11-29ev26-540.zip - 278
E2M4: The Evil BaseChris Ratcliff5:52.002002-04-27cl24-552.zip - 508
E2M5: Deimos ObservatoryChris Ratcliff5:52.002001-06-25cl25-552.zip - 339
MAP12: CraterChris Ratcliff5:57.002001-02-05ev12-557.zip - 296
MAP32: CaribbeanChris Ratcliff6:03.002000-12-22ev32-603.zip - 258
MAP32: CaribbeanChris Ratcliff6:15.002000-12-22ev32-615.zip - 285
MAP13: Nukage ProcessingChris Ratcliff6:23.002000-11-29ev13-623.zip - 273
MAP15: Bulls on ParadeChris Ratcliff6:23.002003-02-09av15-623.zip - 247
MAP25: Barons DenChris Ratcliff6:29.002000-12-01ev25-629.zip - 434
MAP15: Bulls on ParadeChris Ratcliff6:38.002003-02-03av15-638.zip - 243
MAP14: Steel WorksChris Ratcliff6:39.002000-11-09ev14-639.zip - 278
MAP12: CraterChris Ratcliff6:41.002000-11-30ev12-641.zip - 281
MAP31: The DescentChris Ratcliff6:42.002012-05-03hr31-642.zip - 404
E2M4: The Evil BaseChris Ratcliff6:46.002001-06-25cl24-646.zip - 352
E2M6: Outpost 666Chris Ratcliff6:56.002001-08-20cl26-656.zip - 422
MAP23: ShowdownChris Ratcliff7:11.002001-06-22mm23-711.zip - 256
MAP07: PrisonChris Ratcliff7:22.002001-09-01ev07-722.zip - 282
MAP32: CaribbeanChris Ratcliff7:29.002000-10-19ev32-729.zip - 282
MAP25: Barons DenChris Ratcliff7:33.002000-11-27ev25-733.zip - 354
MAP25: Barons DenChris Ratcliff7:58.002000-11-27ev25-758.zip - 343
MAP32: CaribbeanChris Ratcliff8:12.002000-10-06ev32-812.zip - 247
MAP32: The Hidden Slime FactoryChris Ratcliff8:22.002001-06-19mm32-822.zip - 266
MAP20: Mountain DepotChris Ratcliff8:24.002002-04-12mm20-824.zip - 279
MAP07: PrisonChris Ratcliff8:30.002000-12-02ev07-830.zip - 324
MAP16: Mutual DestructionChris Ratcliff8:34.002002-02-11av16-834.zip - 265
MAP29: River StyxChris Ratcliff8:59.002000-12-21ev29-859.zip - 265
MAP16: The PathChris Ratcliff10:16.002017-12-08hr161016.zip - 671
MAP27: Mount PainChris Ratcliff10:21.002000-12-03ev271021.zip - 305
MAP18: A Dead Mans TownChris Ratcliff11:20.002002-03-04mm181120.zip - 366
MAP17: The Black TowersChris Ratcliff11:44.002002-06-10hr171144.zip - 379
MAP21: Twilight LabChris Ratcliff11:48.002002-03-24mm211148.zip - 383
MAP16: The PathChris Ratcliff11:59.002019-08-04hf161159.zip - 603
MAP20: Judgement DayChris Ratcliff12:33.002003-10-28hr201233.zip - 414
MAP16: The PathChris Ratcliff12:47.002002-07-02hr161247.zip - 331
MAP13: Last Look at EdenChris Ratcliff13:14.002002-06-10hr131314.zip - 272
MAP16: The PathChris Ratcliff14:10.002001-10-04hr161410.zip - 268
MAP25: Demonic HordesChris Ratcliff19:49.002008-11-18av251949.zip - 406
MAP18: Hard AttackChris Ratcliff22:06.002000-12-31hr182206.zip - 390
MAP18: Hard AttackChris Ratcliff24:25.002000-12-26hr182425.zip - 272
MAP25: Demonic HordesChris Ratcliff24:37.002005-12-27av252437.zip - 292
EP4: Thy Flesh Consumed (E4M1 - E4M9)Chris Ratcliff26:31.002000-09-04ep4-2631.zip - 288
EP4: Thy Flesh Consumed (E4M1 - E4M9)Chris Ratcliff47:06.001999-09-19ep4-4706.zip - 286
Remove: wad | map | category | player | all